Pinawa, Canada
Current Conditions -  °F | °C
As of 10:00 PM on Wednesday 22 Oct 2014 (Local Time) from CYWG Reporting Station
Broken Clouds Broken Clouds  
Wind Chill: 54°   Ceiling: 15000
Heat Index: 54°   Visibility: 15mi
Dew Point: 50°   Wind: 14mph
Humidity: 88%   Direction: 190°S
Pressure: 29.75"   Gusts: NA
Location:  50.15°N, 95.88°W
Report Text: CYWG 230300Z 19012KT 15SM BKN150 BKN260 12/10 A2975 RMK AC5CI2 SLP080
Loading
Personal Weather Stations






























Interactive Weather Map
Tropical Storm Tracking
New forecast layout! Learn more

10-Day Weather Forecast

Advertisements
Track Severe Weather on mobile